createdAt,value
2018-12-23T00:00:50.111Z,4.94
2018-12-23T00:01:50.100Z,4.87
2018-12-23T00:02:50.099Z,4.89
2018-12-23T00:03:50.094Z,4.89
2018-12-23T00:04:50.082Z,4.97
2018-12-23T00:05:50.074Z,4.94
2018-12-23T00:06:50.078Z,4.97
2018-12-23T00:07:50.042Z,4.92
2018-12-23T00:08:50.017Z,4.97
2018-12-23T00:09:50.036Z,4.94
2018-12-23T00:10:50.009Z,4.95
2018-12-23T00:11:50.002Z,4.86
2018-12-23T00:12:49.999Z,4.89
2018-12-23T00:13:50.007Z,4.95
2018-12-23T00:14:49.961Z,4.86
2018-12-23T00:15:49.928Z,4.89
2018-12-23T00:16:49.927Z,4.90
2018-12-23T00:17:49.915Z,4.89
2018-12-23T00:18:49.915Z,4.92
2018-12-23T00:19:49.955Z,4.92
2018-12-23T00:20:49.887Z,4.90
2018-12-23T00:21:49.922Z,4.92
2018-12-23T00:22:49.884Z,4.89
2018-12-23T00:23:49.873Z,4.86
2018-12-23T00:24:49.857Z,4.90
2018-12-23T00:25:49.902Z,4.87
2018-12-23T00:26:49.855Z,4.95
2018-12-23T00:27:52.660Z,4.94
2018-12-23T00:28:51.615Z,4.94
2018-12-23T00:29:53.742Z,4.94
2018-12-23T00:30:49.780Z,4.94
2018-12-23T00:31:50.191Z,4.95
2018-12-23T00:32:49.750Z,4.90
2018-12-23T00:33:49.765Z,4.87
2018-12-23T00:34:49.747Z,4.95
2018-12-23T00:35:49.738Z,4.84
2018-12-23T00:36:49.751Z,4.86
2018-12-23T00:37:49.705Z,4.86
2018-12-23T00:38:49.693Z,4.83
2018-12-23T00:39:49.691Z,4.83
2018-12-23T00:40:49.683Z,4.86
2018-12-23T00:41:49.694Z,4.87
2018-12-23T00:42:49.755Z,4.90
2018-12-23T00:43:49.660Z,4.86
2018-12-23T00:44:49.643Z,4.97
2018-12-23T00:45:49.647Z,4.90
2018-12-23T00:46:49.648Z,4.89
2018-12-23T00:47:49.627Z,4.89
2018-12-23T00:48:55.677Z,4.94
2018-12-23T00:49:49.608Z,4.95
2018-12-23T00:50:50.102Z,4.86
2018-12-23T00:51:49.607Z,4.92
2018-12-23T00:52:49.531Z,4.89
2018-12-23T00:53:49.542Z,4.89
2018-12-23T00:54:50.113Z,4.89
2018-12-23T00:55:49.512Z,4.90
2018-12-23T00:56:49.515Z,4.92
2018-12-23T00:57:49.477Z,4.90
2018-12-23T00:58:49.504Z,4.86
2018-12-23T00:59:49.600Z,4.95
2018-12-23T01:00:49.507Z,4.84
2018-12-23T01:01:49.473Z,4.90
2018-12-23T01:02:49.475Z,4.90
2018-12-23T01:03:49.461Z,4.87
2018-12-23T01:04:49.487Z,4.95
2018-12-23T01:05:49.424Z,4.97
2018-12-23T01:06:49.415Z,4.95
2018-12-23T01:07:49.387Z,4.89
2018-12-23T01:08:49.372Z,4.94
2018-12-23T01:09:49.370Z,4.89
2018-12-23T01:10:50.091Z,4.94
2018-12-23T01:11:50.197Z,4.92
2018-12-23T01:12:50.093Z,4.86
2018-12-23T01:13:49.333Z,4.92
2018-12-23T01:14:50.128Z,4.90
2018-12-23T01:15:49.473Z,4.92
2018-12-23T01:16:49.325Z,4.86
2018-12-23T01:17:49.280Z,4.79
2018-12-23T01:18:49.283Z,4.76
2018-12-23T01:19:49.250Z,4.86
2018-12-23T01:20:49.291Z,4.75
2018-12-23T01:21:49.231Z,4.70
2018-12-23T01:22:49.223Z,4.61
2018-12-23T01:23:49.213Z,4.63
2018-12-23T01:24:49.192Z,4.60
2018-12-23T01:25:49.226Z,4.57
2018-12-23T01:26:49.218Z,4.50
2018-12-23T01:27:49.166Z,4.39
2018-12-23T01:28:49.142Z,4.40
2018-12-23T01:29:49.154Z,4.34
2018-12-23T01:30:49.141Z,4.40
2018-12-23T01:31:49.127Z,4.34
2018-12-23T01:32:49.149Z,4.38
2018-12-23T01:33:49.118Z,4.25
2018-12-23T01:34:51.089Z,4.31
2018-12-23T01:35:49.098Z,4.31
2018-12-23T01:36:49.072Z,4.24
2018-12-23T01:37:49.081Z,4.38
2018-12-23T01:38:49.092Z,4.32
2018-12-23T01:39:49.041Z,4.34
2018-12-23T01:40:49.030Z,4.42
2018-12-23T01:41:49.029Z,4.40
2018-12-23T01:42:49.038Z,4.39
2018-12-23T01:43:48.996Z,4.45
2018-12-23T01:44:48.986Z,4.39
2018-12-23T01:45:48.973Z,4.40
2018-12-23T01:46:48.968Z,4.46
2018-12-23T01:47:48.971Z,4.43
2018-12-23T01:48:48.969Z,4.50
2018-12-23T01:49:48.947Z,4.48
2018-12-23T01:50:48.941Z,4.50
2018-12-23T01:51:48.907Z,4.53
2018-12-23T01:52:48.917Z,4.56
2018-12-23T01:53:48.906Z,4.52
2018-12-23T01:54:48.924Z,4.60
2018-12-23T01:55:48.881Z,4.61
2018-12-23T01:56:48.870Z,4.66
2018-12-23T01:57:48.859Z,4.61
2018-12-23T01:58:48.853Z,4.63
2018-12-23T01:59:48.840Z,4.53
2018-12-23T02:00:48.858Z,4.66
2018-12-23T02:01:48.805Z,4.66
2018-12-23T02:02:48.812Z,4.68
2018-12-23T02:03:48.786Z,4.71
2018-12-23T02:04:48.789Z,4.75
2018-12-23T02:05:48.791Z,4.74
2018-12-23T02:06:48.789Z,4.68
2018-12-23T02:07:48.739Z,4.70
2018-12-23T02:08:48.735Z,4.60
2018-12-23T02:09:48.723Z,4.64
2018-12-23T02:10:48.714Z,4.56
2018-12-23T02:11:48.769Z,4.58
2018-12-23T02:12:48.704Z,4.57
2018-12-23T02:13:48.689Z,4.71
2018-12-23T02:14:48.683Z,4.61
2018-12-23T02:15:48.672Z,4.66
2018-12-23T02:16:48.650Z,4.67
2018-12-23T02:17:48.656Z,4.75
2018-12-23T02:18:48.663Z,4.70
2018-12-23T02:19:48.654Z,4.61
2018-12-23T02:20:48.617Z,4.64
2018-12-23T02:21:48.605Z,4.61
2018-12-23T02:22:48.640Z,4.61
2018-12-23T02:23:48.582Z,4.61
2018-12-23T02:24:48.575Z,4.74
2018-12-23T02:25:48.543Z,4.71
2018-12-23T02:26:48.548Z,4.71
2018-12-23T02:27:48.534Z,4.71
2018-12-23T02:28:48.524Z,4.67
2018-12-23T02:29:48.491Z,4.67
2018-12-23T02:30:48.496Z,4.67
2018-12-23T02:31:48.485Z,4.75
2018-12-23T02:32:48.462Z,4.70
2018-12-23T02:33:48.485Z,4.71
2018-12-23T02:34:48.509Z,4.71
2018-12-23T02:35:55.490Z,4.74
2018-12-23T02:36:49.446Z,4.70
2018-12-23T02:37:48.424Z,4.71
2018-12-23T02:38:48.422Z,4.74
2018-12-23T02:39:48.422Z,4.74
2018-12-23T02:40:48.443Z,4.76
2018-12-23T02:41:48.377Z,4.75
2018-12-23T02:42:48.390Z,4.89
2018-12-23T02:43:48.410Z,4.74
2018-12-23T02:44:48.359Z,4.84
2018-12-23T02:45:48.369Z,4.71
2018-12-23T02:46:48.329Z,4.75
2018-12-23T02:47:48.303Z,4.74
2018-12-23T02:48:48.315Z,4.87
2018-12-23T02:49:48.317Z,4.74
2018-12-23T02:50:48.283Z,4.76
2018-12-23T02:51:48.282Z,4.76
2018-12-23T02:52:48.256Z,4.84
2018-12-23T02:53:48.262Z,4.84
2018-12-23T02:54:48.224Z,4.82
2018-12-23T02:55:48.238Z,4.86
2018-12-23T02:56:48.244Z,4.86
2018-12-23T02:57:48.224Z,4.94
2018-12-23T02:58:48.196Z,4.79
2018-12-23T02:59:48.187Z,4.83
2018-12-23T03:00:48.182Z,4.82
2018-12-23T03:01:48.192Z,4.87
2018-12-23T03:02:48.174Z,4.86
2018-12-23T03:03:48.154Z,4.78
2018-12-23T03:04:48.132Z,4.84
2018-12-23T03:05:48.110Z,4.86
2018-12-23T03:06:48.126Z,4.70
2018-12-23T03:07:48.131Z,4.76
2018-12-23T03:08:48.111Z,4.76
2018-12-23T03:09:57.200Z,4.82
2018-12-23T03:10:48.052Z,4.71
2018-12-23T03:11:57.229Z,4.70
2018-12-23T03:12:56.756Z,4.75
2018-12-23T03:13:56.312Z,4.64
2018-12-23T03:14:48.057Z,4.70
2018-12-23T03:15:57.940Z,4.70
2018-12-23T03:16:57.401Z,4.66
2018-12-23T03:17:56.922Z,4.74
2018-12-23T03:18:57.442Z,4.70
2018-12-23T03:19:58.400Z,4.70
2018-12-23T03:20:47.965Z,4.74
2018-12-23T03:23:05.384Z,4.79
2018-12-23T03:24:05.388Z,4.83
2018-12-23T03:25:05.341Z,4.89
2018-12-23T03:26:05.307Z,4.92
2018-12-23T03:27:05.311Z,4.90
2018-12-23T03:28:05.318Z,4.95
2018-12-23T03:29:05.319Z,4.94
2018-12-23T03:30:05.302Z,4.98
2018-12-23T03:31:05.277Z,4.97
2018-12-23T03:32:05.301Z,4.97
2018-12-23T03:33:05.279Z,5.05
2018-12-23T03:34:05.243Z,5.05
2018-12-23T03:35:05.259Z,5.04
2018-12-23T03:36:05.193Z,5.05
2018-12-23T03:37:05.208Z,5.07
2018-12-23T03:38:05.224Z,5.12
2018-12-23T03:39:14.224Z,5.04
2018-12-23T03:40:05.166Z,5.13
2018-12-23T03:41:05.148Z,5.13
2018-12-23T03:42:13.769Z,5.13
2018-12-23T03:43:14.285Z,5.15
2018-12-23T03:44:05.163Z,5.19
2018-12-23T03:45:05.102Z,5.19
2018-12-23T03:46:14.321Z,5.25
2018-12-23T03:47:05.097Z,5.22
2018-12-23T03:48:16.359Z,5.13
2018-12-23T03:49:14.919Z,5.20
2018-12-23T03:50:05.058Z,5.20
2018-12-23T03:51:14.418Z,5.28
2018-12-23T03:52:14.449Z,5.16
2018-12-23T03:53:14.484Z,5.20
2018-12-23T03:54:05.079Z,5.23
2018-12-23T03:55:05.108Z,5.29
2018-12-23T03:56:05.981Z,5.23
2018-12-23T03:57:04.984Z,5.33
2018-12-23T03:58:04.974Z,5.31
2018-12-23T03:59:04.962Z,5.29
2018-12-23T04:00:05.038Z,5.37
2018-12-23T04:01:05.140Z,5.23
2018-12-23T04:02:04.939Z,5.31
2018-12-23T04:03:04.942Z,5.41
2018-12-23T04:04:04.923Z,5.38
2018-12-23T04:05:04.912Z,5.31
2018-12-23T04:06:04.952Z,5.31
2018-12-23T04:07:04.876Z,5.33
2018-12-23T04:08:04.880Z,5.38
2018-12-23T04:09:15.012Z,5.33
2018-12-23T04:10:14.028Z,5.29
2018-12-23T04:11:13.596Z,5.33
2018-12-23T04:12:14.115Z,5.37
2018-12-23T04:13:04.840Z,5.37
2018-12-23T04:14:13.658Z,5.38
2018-12-23T04:15:14.187Z,5.40
2018-12-23T04:16:14.201Z,5.29
2018-12-23T04:17:14.253Z,5.33
2018-12-23T04:19:22.193Z,5.36
2018-12-23T04:20:22.150Z,5.44
2018-12-23T04:21:22.127Z,5.38
2018-12-23T04:22:22.205Z,5.38
2018-12-23T04:23:22.112Z,5.40
2018-12-23T04:24:22.104Z,5.41
2018-12-23T04:25:22.107Z,5.43
2018-12-23T04:26:22.064Z,5.33
2018-12-23T04:27:22.066Z,5.34
2018-12-23T04:28:22.099Z,5.43
2018-12-23T04:29:22.050Z,5.40
2018-12-23T04:30:22.044Z,5.41
2018-12-23T04:31:22.034Z,5.49
2018-12-23T04:32:22.019Z,5.47
2018-12-23T04:33:22.037Z,5.46
2018-12-23T04:34:21.977Z,5.47
2018-12-23T04:35:21.981Z,5.44
2018-12-23T04:36:21.969Z,5.49
2018-12-23T04:37:21.972Z,5.46
2018-12-23T04:38:22.003Z,5.51
2018-12-23T04:39:21.941Z,5.55
2018-12-23T04:40:21.924Z,5.43
2018-12-23T04:41:21.916Z,5.41
2018-12-23T04:42:21.913Z,5.55
2018-12-23T04:43:21.939Z,5.54
2018-12-23T04:44:21.904Z,5.55
2018-12-23T04:45:21.926Z,5.51
2018-12-23T04:46:21.868Z,5.54
2018-12-23T04:47:21.854Z,5.55
2018-12-23T04:48:21.834Z,5.55
2018-12-23T04:49:21.827Z,5.56
2018-12-23T04:50:21.888Z,5.56
2018-12-23T04:51:21.822Z,5.65
2018-12-23T04:52:21.804Z,5.56
2018-12-23T04:53:21.794Z,5.58
2018-12-23T04:54:21.789Z,5.67
2018-12-23T04:55:21.776Z,5.64
2018-12-23T04:56:21.814Z,5.54
2018-12-23T04:57:21.748Z,5.61
2018-12-23T04:58:21.739Z,5.70
2018-12-23T04:59:21.745Z,5.58
2018-12-23T05:00:21.702Z,5.64
2018-12-23T05:01:21.748Z,5.58
2018-12-23T05:02:21.818Z,5.64
2018-12-23T05:03:21.666Z,5.61
2018-12-23T05:04:21.663Z,5.65
2018-12-23T05:05:21.761Z,5.61
2018-12-23T05:06:21.668Z,5.62
2018-12-23T05:07:21.666Z,5.64
2018-12-23T05:08:21.657Z,5.61
2018-12-23T05:09:21.621Z,5.70
2018-12-23T05:10:21.619Z,5.62
2018-12-23T05:11:21.657Z,5.62
2018-12-23T05:12:21.601Z,5.69
2018-12-23T05:13:29.352Z,5.61
2018-12-23T05:14:30.617Z,5.62
2018-12-23T05:15:21.556Z,5.62
2018-12-23T05:16:21.533Z,5.62
2018-12-23T05:17:30.615Z,5.67
2018-12-23T05:18:30.653Z,5.67
2018-12-23T05:19:30.678Z,5.70
2018-12-23T05:20:30.242Z,5.76
2018-12-23T05:21:30.761Z,5.81
2018-12-23T05:22:30.774Z,5.69
2018-12-23T05:23:30.796Z,5.81
2018-12-23T05:24:21.491Z,5.79
2018-12-23T05:25:21.477Z,5.70
2018-12-23T05:26:21.465Z,5.77
2018-12-23T05:27:21.432Z,5.79
2018-12-23T05:28:21.496Z,5.80
2018-12-23T05:29:21.434Z,5.83
2018-12-23T05:30:31.841Z,5.77
2018-12-23T05:31:21.436Z,5.80
2018-12-23T05:32:21.391Z,5.80
2018-12-23T05:33:21.360Z,5.80
2018-12-23T05:34:21.361Z,5.87
2018-12-23T05:35:21.365Z,5.81
2018-12-23T05:36:21.350Z,5.83
2018-12-23T05:37:21.346Z,5.81
2018-12-23T05:38:21.308Z,5.87
2018-12-23T05:39:21.326Z,5.83
2018-12-23T05:40:21.320Z,5.91
2018-12-23T05:41:21.302Z,5.92
2018-12-23T05:42:21.298Z,5.91
2018-12-23T05:43:21.279Z,5.88
2018-12-23T05:44:21.304Z,5.95
2018-12-23T05:45:21.281Z,5.83
2018-12-23T05:46:21.234Z,5.91
2018-12-23T05:47:21.257Z,5.94
2018-12-23T05:48:21.219Z,5.91
2018-12-23T05:49:21.229Z,5.79
2018-12-23T05:50:21.232Z,5.94
2018-12-23T05:51:21.174Z,5.95
2018-12-23T05:52:21.212Z,5.88
2018-12-23T05:53:21.179Z,5.90
2018-12-23T05:54:21.144Z,5.90
2018-12-23T05:55:21.879Z,5.90
2018-12-23T05:56:21.124Z,6.06
2018-12-23T05:57:21.131Z,5.95
2018-12-23T05:58:21.207Z,5.98
2018-12-23T05:59:21.094Z,5.92
2018-12-23T06:00:21.253Z,5.92
2018-12-23T06:01:21.077Z,5.95
2018-12-23T06:02:21.067Z,6.01
2018-12-23T06:03:21.116Z,5.95
2018-12-23T06:04:21.758Z,5.95
2018-12-23T06:05:21.212Z,5.99
2018-12-23T06:06:23.417Z,6.07
2018-12-23T06:07:22.238Z,6.01
2018-12-23T06:08:21.004Z,5.97
2018-12-23T06:09:21.042Z,6.05
2018-12-23T06:10:21.217Z,5.95
2018-12-23T06:11:21.061Z,5.98
2018-12-23T06:12:21.562Z,6.09
2018-12-23T06:13:21.023Z,6.06
2018-12-23T06:14:21.153Z,6.02
2018-12-23T06:15:23.046Z,6.09
2018-12-23T06:16:20.911Z,5.99
2018-12-23T06:17:21.434Z,5.98
2018-12-23T06:18:20.966Z,6.02
2018-12-23T06:19:20.905Z,6.06
2018-12-23T06:20:20.925Z,6.10
2018-12-23T06:21:22.921Z,6.16
2018-12-23T06:22:20.891Z,6.15
2018-12-23T06:23:21.017Z,6.20
2018-12-23T06:24:20.893Z,6.15
2018-12-23T06:25:20.815Z,6.17
2018-12-23T06:26:21.777Z,6.25
2018-12-23T06:27:20.866Z,6.15
2018-12-23T06:28:20.894Z,6.10
2018-12-23T06:29:20.844Z,6.15
2018-12-23T06:30:20.820Z,6.17
2018-12-23T06:31:20.776Z,6.20
2018-12-23T06:32:20.762Z,6.19
2018-12-23T06:33:23.326Z,6.17
2018-12-23T06:34:20.734Z,6.16
2018-12-23T06:35:20.723Z,6.16
2018-12-23T06:36:22.692Z,6.22
2018-12-23T06:37:20.750Z,6.19
2018-12-23T06:38:20.681Z,6.19
2018-12-23T06:39:20.700Z,6.19
2018-12-23T06:40:20.674Z,6.26
2018-12-23T06:41:20.665Z,6.22
2018-12-23T06:42:21.409Z,6.29
2018-12-23T06:43:20.805Z,6.28
2018-12-23T06:44:20.935Z,6.19
2018-12-23T06:45:20.604Z,6.22
2018-12-23T06:46:20.614Z,6.25
2018-12-23T06:47:20.645Z,6.25
2018-12-23T06:48:20.635Z,6.20
2018-12-23T06:49:20.612Z,6.29
2018-12-23T06:50:20.783Z,6.28
2018-12-23T06:51:20.596Z,6.19
2018-12-23T06:52:21.280Z,6.31
2018-12-23T06:53:20.588Z,6.25
2018-12-23T06:54:20.625Z,6.20
2018-12-23T06:55:20.906Z,6.25
2018-12-23T06:56:20.619Z,6.25
2018-12-23T06:57:20.577Z,6.25
2018-12-23T06:58:20.645Z,6.32
2018-12-23T06:59:20.461Z,6.22
2018-12-23T07:00:20.478Z,6.32
2018-12-23T07:01:20.508Z,6.29
2018-12-23T07:02:20.475Z,6.34
2018-12-23T07:03:20.423Z,6.36
2018-12-23T07:04:20.404Z,6.32
2018-12-23T07:05:20.396Z,6.38
2018-12-23T07:06:20.390Z,6.34
2018-12-23T07:07:20.511Z,6.34
2018-12-23T07:08:20.392Z,6.39
2018-12-23T07:09:20.353Z,6.35
2018-12-23T07:10:20.347Z,6.38
2018-12-23T07:11:20.388Z,6.36
2018-12-23T07:12:20.314Z,6.34
2018-12-23T07:13:20.369Z,6.38
2018-12-23T07:14:20.324Z,6.39
2018-12-23T07:15:20.317Z,6.39
2018-12-23T07:16:20.299Z,6.38
2018-12-23T07:17:20.305Z,6.41
2018-12-23T07:18:20.377Z,6.39
2018-12-23T07:19:20.278Z,6.39
2018-12-23T07:20:20.288Z,6.36
2018-12-23T07:21:20.232Z,6.39
2018-12-23T07:22:20.239Z,6.36
2018-12-23T07:23:20.482Z,6.39
2018-12-23T07:24:20.229Z,6.50
2018-12-23T07:25:20.226Z,6.47
2018-12-23T07:26:20.239Z,6.47
2018-12-23T07:27:20.212Z,6.43
2018-12-23T07:28:21.108Z,6.46
2018-12-23T07:29:20.168Z,6.52
2018-12-23T07:30:20.183Z,6.50
2018-12-23T07:31:20.249Z,6.47
2018-12-23T07:32:20.117Z,6.44
2018-12-23T07:33:20.170Z,6.50
2018-12-23T07:34:20.108Z,6.47
2018-12-23T07:35:23.293Z,6.44
2018-12-23T07:36:20.132Z,6.34
2018-12-23T07:37:27.292Z,6.49
2018-12-23T07:38:21.055Z,6.50
2018-12-23T07:39:20.166Z,6.46
2018-12-23T07:40:20.085Z,6.47
2018-12-23T07:41:20.035Z,6.39
2018-12-23T07:42:23.874Z,6.53
2018-12-23T07:43:20.245Z,6.46
2018-12-23T07:44:20.012Z,6.56
2018-12-23T07:45:20.004Z,6.49
2018-12-23T07:46:19.964Z,6.57
2018-12-23T07:47:20.070Z,6.50
2018-12-23T07:48:19.991Z,6.54
2018-12-23T07:49:19.974Z,6.54
2018-12-23T07:50:19.988Z,6.52
2018-12-23T07:51:19.989Z,6.56
2018-12-23T07:52:19.956Z,6.56
2018-12-23T07:53:19.910Z,6.53
2018-12-23T07:54:19.901Z,6.57
2018-12-23T07:55:19.917Z,6.54
2018-12-23T07:56:19.923Z,6.56
2018-12-23T07:57:19.914Z,6.54
2018-12-23T07:58:19.969Z,6.64
2018-12-23T07:59:19.843Z,6.68
2018-12-23T08:00:19.846Z,6.60
2018-12-23T08:01:19.796Z,6.62
2018-12-23T08:02:19.827Z,6.60
2018-12-23T08:03:19.788Z,6.68
2018-12-23T08:04:19.809Z,6.62
2018-12-23T08:05:19.798Z,6.65
2018-12-23T08:06:19.783Z,6.59
2018-12-23T08:07:19.848Z,6.65
2018-12-23T08:08:19.764Z,6.65
2018-12-23T08:09:19.751Z,6.62
2018-12-23T08:10:19.739Z,6.62
2018-12-23T08:11:19.705Z,6.70
2018-12-23T08:12:19.754Z,6.74
2018-12-23T08:13:19.727Z,6.72
2018-12-23T08:14:28.956Z,6.71
2018-12-23T08:15:19.684Z,6.68
2018-12-23T08:16:19.670Z,6.75
2018-12-23T08:17:28.490Z,6.74
2018-12-23T08:18:19.730Z,6.77
2018-12-23T08:19:19.629Z,6.71
2018-12-23T08:20:19.588Z,6.72
2018-12-23T08:21:19.628Z,6.75
2018-12-23T08:22:19.613Z,6.74
2018-12-23T08:23:19.730Z,6.78
2018-12-23T08:24:19.607Z,6.80
2018-12-23T08:25:19.584Z,6.78
2018-12-23T08:26:19.585Z,6.80
2018-12-23T08:28:36.749Z,6.92
2018-12-23T08:29:37.466Z,6.86
2018-12-23T08:30:36.741Z,6.85
2018-12-23T08:31:36.589Z,6.83
2018-12-23T08:32:36.785Z,6.90
2018-12-23T08:33:36.672Z,6.89
2018-12-23T08:34:36.903Z,6.86
2018-12-23T08:35:36.602Z,6.87
2018-12-23T08:36:36.606Z,6.86
2018-12-23T08:37:44.396Z,6.87
2018-12-23T08:38:37.575Z,6.90
2018-12-23T08:39:36.598Z,6.87
2018-12-23T08:40:36.579Z,6.85
2018-12-23T08:41:36.636Z,6.87
2018-12-23T08:42:36.583Z,6.90
2018-12-23T08:43:36.494Z,6.89
2018-12-23T08:44:36.470Z,6.87
2018-12-23T08:45:36.536Z,6.93
2018-12-23T08:46:39.265Z,6.87
2018-12-23T08:47:36.476Z,6.95
2018-12-23T08:48:36.511Z,6.85
2018-12-23T08:49:36.424Z,6.92
2018-12-23T08:50:36.432Z,6.93
2018-12-23T08:51:36.540Z,7.01
2018-12-23T08:52:36.486Z,7.03
2018-12-23T08:53:36.448Z,7.04
2018-12-23T08:54:36.430Z,7.13
2018-12-23T08:55:36.414Z,7.11
2018-12-23T08:56:36.363Z,7.11
2018-12-23T08:57:36.378Z,7.07
2018-12-23T08:58:36.380Z,7.11
2018-12-23T08:59:36.322Z,7.11
2018-12-23T09:00:36.339Z,7.01
2018-12-23T09:01:36.314Z,7.10
2018-12-23T09:02:36.361Z,7.08
2018-12-23T09:03:36.275Z,7.07
2018-12-23T09:04:36.364Z,7.18
2018-12-23T09:05:36.330Z,7.18
2018-12-23T09:06:36.361Z,7.19
2018-12-23T09:07:36.264Z,7.11
2018-12-23T09:08:36.254Z,7.10
2018-12-23T09:09:36.245Z,7.14
2018-12-23T09:10:36.263Z,7.19
2018-12-23T09:11:42.805Z,7.23
2018-12-23T09:12:37.186Z,7.29
2018-12-23T09:13:36.893Z,7.29
2018-12-23T09:14:36.179Z,7.31
2018-12-23T09:15:36.250Z,7.28
2018-12-23T09:16:36.528Z,7.37
2018-12-23T09:17:36.151Z,7.29
2018-12-23T09:18:36.103Z,7.32
2018-12-23T09:19:36.900Z,7.39
2018-12-23T09:20:36.214Z,7.40
2018-12-23T09:21:36.153Z,7.39
2018-12-23T09:22:36.115Z,7.44
2018-12-23T09:23:36.139Z,7.44
2018-12-23T09:24:36.059Z,7.37
2018-12-23T09:25:36.899Z,7.41
2018-12-23T09:26:36.057Z,7.37
2018-12-23T09:27:36.042Z,7.48
2018-12-23T09:28:36.124Z,7.55
2018-12-23T09:29:36.081Z,7.48
2018-12-23T09:30:35.972Z,7.55
2018-12-23T09:31:35.980Z,7.44
2018-12-23T09:32:35.980Z,7.64
2018-12-23T09:33:36.014Z,7.66
2018-12-23T09:34:35.945Z,7.74
2018-12-23T09:35:35.936Z,7.75
2018-12-23T09:36:35.929Z,7.72
2018-12-23T09:37:35.912Z,7.70
2018-12-23T09:38:35.950Z,7.77
2018-12-23T09:39:35.922Z,7.77
2018-12-23T09:40:35.896Z,7.80
2018-12-23T09:41:35.907Z,7.70
2018-12-23T09:42:35.900Z,7.66
2018-12-23T09:43:35.861Z,7.75
2018-12-23T09:44:44.557Z,7.77
2018-12-23T09:45:45.150Z,7.77
2018-12-23T09:46:35.879Z,7.91
2018-12-23T09:47:35.781Z,7.90
2018-12-23T09:48:35.827Z,7.88
2018-12-23T09:49:46.627Z,7.83
2018-12-23T09:50:35.742Z,7.77
2018-12-23T09:51:35.773Z,7.87
2018-12-23T09:52:35.749Z,7.90
2018-12-23T09:53:35.842Z,7.91
2018-12-23T09:54:35.720Z,7.93
2018-12-23T09:55:35.930Z,7.95
2018-12-23T09:56:46.051Z,7.88
2018-12-23T09:57:35.741Z,7.91
2018-12-23T09:58:35.691Z,7.91
2018-12-23T09:59:35.751Z,7.96
2018-12-23T10:00:35.681Z,7.96
2018-12-23T10:01:35.661Z,8.02
2018-12-23T10:02:35.648Z,7.96
2018-12-23T10:03:35.640Z,7.98
2018-12-23T10:04:35.635Z,7.93
2018-12-23T10:05:35.648Z,8.03
2018-12-23T10:06:35.596Z,7.98
2018-12-23T10:07:35.602Z,8.02
2018-12-23T10:08:35.587Z,8.08
2018-12-23T10:09:35.617Z,8.13
2018-12-23T10:10:35.582Z,8.18
2018-12-23T10:11:35.531Z,8.20
2018-12-23T10:12:35.555Z,8.13
2018-12-23T10:13:35.541Z,8.31
2018-12-23T10:14:35.554Z,8.17
2018-12-23T10:15:35.559Z,8.24
2018-12-23T10:16:35.643Z,8.16
2018-12-23T10:17:35.621Z,8.20
2018-12-23T10:18:35.483Z,8.23
2018-12-23T10:19:35.478Z,8.31
2018-12-23T10:20:35.527Z,8.16
2018-12-23T10:21:35.538Z,8.17
2018-12-23T10:22:35.566Z,8.18
2018-12-23T10:23:35.567Z,8.20
2018-12-23T10:24:35.420Z,8.14
2018-12-23T10:25:35.472Z,8.14
2018-12-23T10:26:35.392Z,8.09
2018-12-23T10:27:35.726Z,8.09
2018-12-23T10:28:35.421Z,8.05
2018-12-23T10:29:35.368Z,8.09
2018-12-23T10:30:35.393Z,8.03
2018-12-23T10:31:35.337Z,8.05
2018-12-23T10:32:35.388Z,8.06
2018-12-23T10:33:35.363Z,8.05
2018-12-23T10:34:35.301Z,8.05
2018-12-23T10:35:35.333Z,8.21
2018-12-23T10:36:35.367Z,8.17
2018-12-23T10:37:35.283Z,8.23
2018-12-23T10:38:35.285Z,8.11
2018-12-23T10:39:35.274Z,8.08
2018-12-23T10:40:35.305Z,8.08
2018-12-23T10:41:35.287Z,8.06
2018-12-23T10:42:35.239Z,8.06
2018-12-23T10:43:35.293Z,8.05
2018-12-23T10:44:35.233Z,8.05
2018-12-23T10:45:35.251Z,8.08
2018-12-23T10:46:35.191Z,8.06
2018-12-23T10:47:35.243Z,8.09
2018-12-23T10:48:35.165Z,8.21
2018-12-23T10:49:36.001Z,8.20
2018-12-23T10:50:35.155Z,8.05
2018-12-23T10:51:35.156Z,8.13
2018-12-23T10:52:35.119Z,8.16
2018-12-23T10:53:35.144Z,8.23
2018-12-23T10:54:36.176Z,8.27
2018-12-23T10:55:35.098Z,8.21
2018-12-23T10:56:35.130Z,8.31
2018-12-23T10:57:35.177Z,8.31
2018-12-23T10:58:35.113Z,8.28
2018-12-23T10:59:35.077Z,8.23
2018-12-23T11:00:35.273Z,8.31
2018-12-23T11:01:35.048Z,8.28
2018-12-23T11:02:35.077Z,8.28
2018-12-23T11:03:35.016Z,8.28
2018-12-23T11:04:35.026Z,8.27
2018-12-23T11:05:34.996Z,8.16
2018-12-23T11:06:34.991Z,8.31
2018-12-23T11:07:34.962Z,8.26
2018-12-23T11:08:34.984Z,8.27
2018-12-23T11:09:35.003Z,8.27
2018-12-23T11:10:34.948Z,8.27
2018-12-23T11:11:35.327Z,8.27
2018-12-23T11:12:35.602Z,8.27
2018-12-23T11:13:35.615Z,8.39
2018-12-23T11:14:34.896Z,8.28
2018-12-23T11:15:35.008Z,8.32
2018-12-23T11:16:34.916Z,8.32
2018-12-23T11:17:34.877Z,8.27
2018-12-23T11:18:34.859Z,8.41
2018-12-23T11:19:34.954Z,8.41
2018-12-23T11:20:34.959Z,8.38
2018-12-23T11:21:35.060Z,8.44
2018-12-23T11:22:34.897Z,8.53
2018-12-23T11:23:35.729Z,8.52
2018-12-23T11:24:34.907Z,8.61
2018-12-23T11:25:34.784Z,8.53
2018-12-23T11:26:34.799Z,8.57
2018-12-23T11:27:34.790Z,8.57
2018-12-23T11:28:34.793Z,8.61
2018-12-23T11:29:34.743Z,8.66
2018-12-23T11:30:34.724Z,8.61
2018-12-23T11:31:34.732Z,8.56
2018-12-23T11:32:34.850Z,8.49
2018-12-23T11:33:34.715Z,8.56
2018-12-23T11:34:34.699Z,8.50
2018-12-23T11:35:34.657Z,8.45
2018-12-23T11:36:34.691Z,8.45
2018-12-23T11:37:34.710Z,8.46
2018-12-23T11:38:35.603Z,8.41
2018-12-23T11:39:34.653Z,8.45
2018-12-23T11:40:34.626Z,8.45
2018-12-23T11:41:34.608Z,8.50
2018-12-23T11:42:34.622Z,8.46
2018-12-23T11:43:34.625Z,8.52
2018-12-23T11:44:34.575Z,8.46
2018-12-23T11:45:34.722Z,8.49
2018-12-23T11:46:34.610Z,8.59
2018-12-23T11:47:34.587Z,8.39
2018-12-23T11:48:34.547Z,8.54
2018-12-23T11:49:34.547Z,8.42
2018-12-23T11:50:34.533Z,8.44
2018-12-23T11:51:34.551Z,8.44
2018-12-23T11:52:34.538Z,8.49
2018-12-23T11:53:34.476Z,8.46
2018-12-23T11:54:34.501Z,8.49
2018-12-23T11:55:34.478Z,8.38
2018-12-23T11:56:34.575Z,8.38
2018-12-23T11:57:34.478Z,8.39
2018-12-23T11:58:34.504Z,8.28
2018-12-23T11:59:35.181Z,8.31
2018-12-23T12:00:35.348Z,8.36
2018-12-23T12:01:34.413Z,8.27
2018-12-23T12:02:34.389Z,8.32
2018-12-23T12:03:34.415Z,8.23
2018-12-23T12:04:34.380Z,8.20
2018-12-23T12:05:36.414Z,8.26
2018-12-23T12:06:34.364Z,8.24
2018-12-23T12:07:34.372Z,8.24
2018-12-23T12:08:34.476Z,8.18
2018-12-23T12:09:34.321Z,8.24
2018-12-23T12:10:34.297Z,8.20
2018-12-23T12:11:34.357Z,8.26
2018-12-23T12:12:34.289Z,8.24
2018-12-23T12:13:34.296Z,8.11
2018-12-23T12:14:34.265Z,8.09
2018-12-23T12:15:34.259Z,8.09
2018-12-23T12:16:34.245Z,8.09
2018-12-23T12:17:34.291Z,8.16
2018-12-23T12:18:35.017Z,8.21
2018-12-23T12:19:34.253Z,8.14
2018-12-23T12:20:34.341Z,8.11
2018-12-23T12:21:34.219Z,8.23
2018-12-23T12:22:34.194Z,8.17
2018-12-23T12:23:34.172Z,8.06
2018-12-23T12:24:34.185Z,8.11
2018-12-23T12:25:34.145Z,8.11
2018-12-23T12:26:34.153Z,8.02
2018-12-23T12:27:34.133Z,8.03
2018-12-23T12:28:34.125Z,8.05
2018-12-23T12:29:34.121Z,7.88
2018-12-23T12:30:34.106Z,7.84
2018-12-23T12:31:34.083Z,7.84
2018-12-23T12:32:34.086Z,7.88
2018-12-23T12:33:34.101Z,7.83
2018-12-23T12:34:34.040Z,7.80
2018-12-23T12:35:34.084Z,7.81
2018-12-23T12:36:34.017Z,7.75
2018-12-23T12:37:34.076Z,7.72
2018-12-23T12:38:34.012Z,7.69
2018-12-23T12:39:34.006Z,7.74
2018-12-23T12:40:34.012Z,7.72
2018-12-23T12:41:34.016Z,7.75
2018-12-23T12:42:33.964Z,7.69
2018-12-23T12:43:33.987Z,7.70
2018-12-23T12:44:33.947Z,7.69
2018-12-23T12:45:33.954Z,7.72
2018-12-23T12:46:34.031Z,7.67
2018-12-23T12:47:33.940Z,7.69
2018-12-23T12:48:33.900Z,7.72
2018-12-23T12:49:33.914Z,7.66
2018-12-23T12:50:33.884Z,7.70
2018-12-23T12:51:33.886Z,7.69
2018-12-23T12:52:33.880Z,7.69
2018-12-23T12:53:33.836Z,7.70
2018-12-23T12:54:33.880Z,7.74
2018-12-23T12:55:33.827Z,7.77
2018-12-23T12:56:33.845Z,7.77
2018-12-23T12:57:34.628Z,7.72
2018-12-23T12:58:33.790Z,7.61
2018-12-23T12:59:33.798Z,7.66
2018-12-23T13:00:33.814Z,7.59
2018-12-23T13:01:34.659Z,7.58
2018-12-23T13:02:33.767Z,7.69
2018-12-23T13:03:33.743Z,7.53
2018-12-23T13:04:33.865Z,7.43
2018-12-23T13:05:34.542Z,7.40
2018-12-23T13:06:34.644Z,7.41
2018-12-23T13:07:34.713Z,7.50
2018-12-23T13:08:33.730Z,7.40
2018-12-23T13:09:33.693Z,7.46
2018-12-23T13:10:33.699Z,7.39
2018-12-23T13:11:33.698Z,7.40
2018-12-23T13:12:34.525Z,7.32
2018-12-23T13:13:33.660Z,7.37
2018-12-23T13:14:33.706Z,7.32
2018-12-23T13:15:33.615Z,7.29
2018-12-23T13:16:33.635Z,7.33
2018-12-23T13:17:33.634Z,7.28
2018-12-23T13:18:33.578Z,7.33
2018-12-23T13:19:33.603Z,7.15
2018-12-23T13:20:33.660Z,7.19
2018-12-23T13:21:33.578Z,7.14
2018-12-23T13:22:33.609Z,7.14